createdAt,value
2019-05-06T00:00:59.236Z,51.64
2019-05-06T00:03:29.804Z,51.47
2019-05-06T00:06:03.936Z,51.44
2019-05-06T00:08:37.514Z,51.54
2019-05-06T00:11:10.897Z,51.70
2019-05-06T00:13:45.459Z,54.54
2019-05-06T00:16:18.865Z,55.76
2019-05-06T00:18:54.086Z,56.02
2019-05-06T00:21:27.471Z,56.35
2019-05-06T00:24:01.296Z,57.19
2019-05-06T00:26:46.331Z,58.06
2019-05-06T00:29:24.270Z,59.10
2019-05-06T00:31:57.662Z,59.00
2019-05-06T00:34:31.161Z,59.35
2019-05-06T00:37:04.594Z,59.74
2019-05-06T00:40:00.443Z,60.45
2019-05-06T00:42:35.740Z,60.27
2019-05-06T00:45:10.840Z,60.57
2019-05-06T00:47:44.454Z,61.22
2019-05-06T00:50:17.838Z,61.72
2019-05-06T00:52:53.834Z,61.62
2019-05-06T00:55:26.937Z,61.58
2019-05-06T00:58:00.380Z,61.83
2019-05-06T01:00:36.591Z,61.83
2019-05-06T01:03:10.083Z,61.18
2019-05-06T01:05:44.417Z,60.93
2019-05-06T01:08:18.419Z,60.43
2019-05-06T01:10:51.777Z,60.29
2019-05-06T01:13:35.959Z,60.36
2019-05-06T01:16:10.334Z,60.65
2019-05-06T01:18:43.751Z,60.64
2019-05-06T01:21:17.425Z,60.83
2019-05-06T01:23:50.750Z,60.80
2019-05-06T01:26:24.394Z,61.35
2019-05-06T01:28:57.840Z,61.39
2019-05-06T01:31:40.581Z,61.20
2019-05-06T01:34:06.377Z,61.73
2019-05-06T01:36:39.815Z,61.64
2019-05-06T01:39:35.104Z,62.18
2019-05-06T01:42:27.677Z,62.12
2019-05-06T01:45:00.988Z,62.12
2019-05-06T01:47:34.651Z,62.79
2019-05-06T01:50:08.527Z,62.84
2019-05-06T01:52:41.888Z,63.13
2019-05-06T01:55:15.431Z,63.05
2019-05-06T01:57:48.790Z,62.72
2019-05-06T02:00:23.666Z,62.82
2019-05-06T02:02:57.127Z,62.96
2019-05-06T02:05:30.498Z,62.93
2019-05-06T02:08:04.058Z,63.26
2019-05-06T02:10:38.278Z,63.38
2019-05-06T02:13:11.574Z,63.27
2019-05-06T02:15:45.009Z,63.49
2019-05-06T02:18:20.830Z,62.98
2019-05-06T02:20:57.478Z,62.98
2019-05-06T02:23:33.771Z,63.66
2019-05-06T02:26:07.392Z,63.80
2019-05-06T02:28:43.607Z,63.73
2019-05-06T02:31:35.325Z,63.96
2019-05-06T02:34:20.692Z,64.30
2019-05-06T02:37:07.917Z,64.09
2019-05-06T02:39:43.792Z,64.01
2019-05-06T02:42:16.360Z,63.89
2019-05-06T02:44:49.944Z,64.01
2019-05-06T02:47:53.572Z,64.16
2019-05-06T02:50:26.949Z,63.91
2019-05-06T02:53:02.705Z,63.72
2019-05-06T02:55:36.222Z,64.08
2019-05-06T02:58:09.659Z,63.83
2019-05-06T03:00:43.313Z,63.95
2019-05-06T03:03:16.801Z,63.91
2019-05-06T03:05:53.052Z,63.97
2019-05-06T03:08:25.161Z,63.83
2019-05-06T03:10:58.670Z,63.76
2019-05-06T03:13:34.212Z,64.04
2019-05-06T03:16:08.211Z,64.31
2019-05-06T03:18:43.365Z,64.29
2019-05-06T03:21:47.610Z,64.23
2019-05-06T03:24:48.835Z,63.86
2019-05-06T03:27:23.486Z,63.82
2019-05-06T03:29:59.282Z,64.21
2019-05-06T03:32:41.124Z,64.17
2019-05-06T03:35:27.268Z,64.26
2019-05-06T03:37:44.056Z,64.24
2019-05-06T03:40:17.678Z,64.66
2019-05-06T03:42:53.976Z,65.17
2019-05-06T03:45:44.878Z,64.93
2019-05-06T03:48:24.008Z,64.52
2019-05-06T03:50:57.597Z,64.62
2019-05-06T03:53:33.365Z,65.02
2019-05-06T03:56:08.037Z,64.63
2019-05-06T03:58:43.512Z,64.91
2019-05-06T04:01:18.456Z,64.58
2019-05-06T04:03:56.501Z,64.66
2019-05-06T04:06:26.815Z,64.94
2019-05-06T04:09:03.352Z,65.11
2019-05-06T04:11:38.172Z,64.86
2019-05-06T04:14:13.989Z,65.35
2019-05-06T04:17:07.433Z,65.58
2019-05-06T04:19:44.238Z,65.31
2019-05-06T04:22:26.207Z,64.88
2019-05-06T04:25:23.153Z,65.44
2019-05-06T04:27:57.992Z,65.36
2019-05-06T04:30:33.405Z,65.36
2019-05-06T04:33:06.717Z,65.70
2019-05-06T04:35:42.800Z,65.65
2019-05-06T04:38:15.339Z,65.78
2019-05-06T04:40:48.954Z,65.66
2019-05-06T04:43:43.588Z,65.59
2019-05-06T04:46:16.905Z,65.79
2019-05-06T04:48:50.623Z,65.07
2019-05-06T04:51:36.859Z,64.85
2019-05-06T04:54:18.345Z,65.81
2019-05-06T04:56:53.639Z,64.39
2019-05-06T04:59:26.776Z,64.30
2019-05-06T05:02:02.693Z,64.17
2019-05-06T05:04:36.981Z,63.17
2019-05-06T05:07:12.774Z,63.20
2019-05-06T05:09:45.680Z,63.22
2019-05-06T05:12:27.452Z,62.92
2019-05-06T05:15:19.896Z,62.43
2019-05-06T05:18:13.014Z,62.61
2019-05-06T05:20:46.938Z,62.43
2019-05-06T05:23:22.804Z,61.70
2019-05-06T05:25:55.876Z,60.79
2019-05-06T05:28:31.573Z,60.57
2019-05-06T05:31:04.960Z,60.07
2019-05-06T05:33:38.447Z,58.95
2019-05-06T05:36:12.356Z,58.95
2019-05-06T05:38:45.742Z,58.10
2019-05-06T05:41:19.284Z,57.96
2019-05-06T05:43:56.983Z,57.39
2019-05-06T05:46:30.539Z,56.25
2019-05-06T05:49:28.652Z,56.89
2019-05-06T05:52:03.410Z,55.90
2019-05-06T05:54:37.521Z,55.50
2019-05-06T05:57:11.904Z,54.71
2019-05-06T05:59:45.453Z,54.02
2019-05-06T06:02:18.893Z,53.88
2019-05-06T06:04:57.284Z,53.78
2019-05-06T06:07:27.738Z,53.26
2019-05-06T06:10:16.266Z,53.41
2019-05-06T06:12:49.635Z,52.87
2019-05-06T06:15:42.378Z,52.25
2019-05-06T06:18:23.509Z,51.96
2019-05-06T06:21:17.927Z,53.08
2019-05-06T06:23:43.042Z,50.27
2019-05-06T06:26:16.520Z,48.42
2019-05-06T06:28:52.291Z,46.26
2019-05-06T06:31:33.254Z,45.25
2019-05-06T06:34:13.129Z,44.20
2019-05-06T06:37:05.261Z,43.68
2019-05-06T06:39:42.334Z,43.47
2019-05-06T06:42:17.252Z,41.87
2019-05-06T06:44:52.147Z,41.41
2019-05-06T06:47:25.723Z,41.57
2019-05-06T06:49:59.086Z,41.70
2019-05-06T06:52:32.803Z,40.47
2019-05-06T06:55:06.380Z,41.64
2019-05-06T06:57:58.701Z,41.67
2019-05-06T07:00:42.490Z,41.92
2019-05-06T07:03:21.838Z,38.62
2019-05-06T07:06:08.080Z,38.49
2019-05-06T07:08:42.624Z,38.52
2019-05-06T07:11:15.966Z,38.75
2019-05-06T07:13:57.011Z,38.12
2019-05-06T07:16:32.719Z,39.22
2019-05-06T07:19:05.492Z,38.72
2019-05-06T07:21:49.307Z,37.65
2019-05-06T07:24:22.940Z,37.90
2019-05-06T07:27:05.829Z,37.24
2019-05-06T07:29:39.112Z,37.23
2019-05-06T07:32:12.481Z,37.98
2019-05-06T07:34:46.076Z,39.27
2019-05-06T07:37:19.336Z,38.02
2019-05-06T07:39:53.106Z,37.81
2019-05-06T07:42:50.039Z,38.18
2019-05-06T07:45:32.956Z,37.48
2019-05-06T07:48:08.465Z,37.67
2019-05-06T07:50:42.524Z,36.87
2019-05-06T07:53:15.910Z,37.13
2019-05-06T07:55:52.443Z,36.09
2019-05-06T07:58:25.397Z,44.44
2019-05-06T08:00:58.678Z,36.72
2019-05-06T08:03:33.137Z,34.86
2019-05-06T08:06:08.146Z,33.51
2019-05-06T08:08:43.293Z,33.21
2019-05-06T08:11:17.326Z,32.20
2019-05-06T08:13:52.619Z,33.85
2019-05-06T08:16:27.066Z,33.43
2019-05-06T08:19:02.655Z,33.46
2019-05-06T08:21:38.101Z,32.91
2019-05-06T08:24:12.032Z,33.38
2019-05-06T08:26:45.597Z,32.27
2019-05-06T08:29:19.387Z,31.07
2019-05-06T08:31:52.788Z,31.07
2019-05-06T08:34:25.996Z,34.04
2019-05-06T08:37:18.079Z,33.81
2019-05-06T08:39:52.682Z,34.84
2019-05-06T08:42:26.222Z,35.24
2019-05-06T08:45:02.087Z,32.65
2019-05-06T08:47:34.590Z,30.02
2019-05-06T08:50:25.892Z,29.59
2019-05-06T08:53:13.991Z,29.44
2019-05-06T08:55:47.510Z,28.60
2019-05-06T08:58:22.289Z,29.43
2019-05-06T09:01:03.153Z,30.01
2019-05-06T09:03:36.284Z,28.85
2019-05-06T09:06:23.617Z,28.57
2019-05-06T09:08:44.409Z,27.44
2019-05-06T09:11:17.506Z,28.21
2019-05-06T09:13:52.113Z,30.97
2019-05-06T09:16:25.490Z,32.18
2019-05-06T09:18:58.604Z,31.75
2019-05-06T09:21:33.511Z,32.19
2019-05-06T09:24:06.848Z,32.32
2019-05-06T09:26:47.275Z,32.81
2019-05-06T09:29:45.190Z,33.43
2019-05-06T09:32:22.710Z,33.70
2019-05-06T09:34:59.070Z,31.49
2019-05-06T09:37:33.120Z,31.34
2019-05-06T09:40:07.844Z,31.74
2019-05-06T09:42:42.593Z,31.80
2019-05-06T09:45:16.201Z,32.90
2019-05-06T09:48:14.038Z,32.91
2019-05-06T09:50:49.052Z,33.05
2019-05-06T09:53:28.363Z,32.61
2019-05-06T09:56:17.850Z,30.51
2019-05-06T09:58:52.958Z,32.29
2019-05-06T10:01:25.971Z,33.63
2019-05-06T10:04:03.249Z,33.20
2019-05-06T10:06:36.753Z,32.70
2019-05-06T10:09:15.731Z,32.49
2019-05-06T10:11:48.699Z,33.55
2019-05-06T10:14:23.394Z,33.47
2019-05-06T10:16:57.065Z,34.71
2019-05-06T10:19:32.087Z,34.25
2019-05-06T10:22:05.551Z,32.22
2019-05-06T10:24:38.799Z,32.95
2019-05-06T10:27:12.269Z,31.64
2019-05-06T10:29:57.368Z,32.87
2019-05-06T10:32:38.764Z,33.45
2019-05-06T10:35:13.094Z,34.56
2019-05-06T10:38:32.713Z,35.55
2019-05-06T10:41:12.871Z,36.08
2019-05-06T10:44:17.405Z,35.79
2019-05-06T10:46:52.751Z,36.19
2019-05-06T10:49:27.174Z,35.87
2019-05-06T10:52:12.562Z,35.21
2019-05-06T10:54:45.258Z,32.09
2019-05-06T10:57:24.961Z,33.37
2019-05-06T10:59:58.100Z,35.14
2019-05-06T11:02:59.443Z,35.18
2019-05-06T11:05:32.805Z,35.09
2019-05-06T11:08:05.980Z,35.93
2019-05-06T11:10:41.514Z,35.77
2019-05-06T11:13:14.810Z,36.51
2019-05-06T11:15:48.075Z,36.88
2019-05-06T11:18:23.400Z,37.56
2019-05-06T11:20:56.602Z,38.49
2019-05-06T11:23:29.901Z,38.45
2019-05-06T11:26:03.334Z,37.10
2019-05-06T11:29:07.461Z,37.48
2019-05-06T11:31:55.112Z,37.79
2019-05-06T11:34:52.454Z,38.14
2019-05-06T11:37:54.107Z,38.40
2019-05-06T11:40:25.543Z,38.98
2019-05-06T11:42:58.952Z,38.01
2019-05-06T11:45:34.982Z,38.41
2019-05-06T11:48:14.635Z,37.92
2019-05-06T11:50:50.063Z,38.97
2019-05-06T11:53:23.417Z,38.33
2019-05-06T11:55:56.782Z,36.92
2019-05-06T11:58:45.398Z,37.87
2019-05-06T12:01:27.709Z,37.41
2019-05-06T12:04:02.690Z,37.23
2019-05-06T12:06:36.118Z,36.05
2019-05-06T12:09:16.574Z,36.22
2019-05-06T12:11:46.551Z,35.78
2019-05-06T12:14:19.932Z,37.34
2019-05-06T12:16:55.054Z,36.81
2019-05-06T12:19:28.917Z,36.51
2019-05-06T12:22:02.941Z,36.24
2019-05-06T12:24:36.267Z,36.72
2019-05-06T12:27:09.627Z,37.72
2019-05-06T12:29:43.063Z,37.65
2019-05-06T12:32:33.068Z,38.00
2019-05-06T12:35:07.106Z,36.75
2019-05-06T12:37:43.985Z,37.72
2019-05-06T12:40:19.674Z,38.75
2019-05-06T12:42:56.786Z,37.83
2019-05-06T12:45:37.179Z,37.31
2019-05-06T12:48:21.153Z,37.59
2019-05-06T12:50:54.457Z,37.20
2019-05-06T12:53:28.016Z,37.52
2019-05-06T12:56:03.085Z,36.54
2019-05-06T12:58:36.617Z,35.03
2019-05-06T13:01:13.593Z,34.11
2019-05-06T13:03:45.668Z,35.48
2019-05-06T13:06:19.127Z,35.39
2019-05-06T13:09:00.962Z,34.53
2019-05-06T13:11:28.669Z,33.46
2019-05-06T13:14:04.122Z,34.08
2019-05-06T13:16:37.429Z,33.00
2019-05-06T13:19:12.136Z,34.11
2019-05-06T13:21:45.764Z,32.90
2019-05-06T13:24:19.044Z,34.64
2019-05-06T13:26:52.912Z,33.81
2019-05-06T13:29:33.058Z,32.82
2019-05-06T13:32:06.188Z,33.50
2019-05-06T13:34:39.702Z,33.00
2019-05-06T13:37:13.235Z,32.05
2019-05-06T13:39:46.549Z,31.01
2019-05-06T13:42:22.723Z,31.71
2019-05-06T13:44:58.522Z,29.67
2019-05-06T13:47:49.438Z,29.01
2019-05-06T13:50:24.929Z,28.88
2019-05-06T13:53:09.119Z,28.09
2019-05-06T13:55:39.922Z,29.91
2019-05-06T13:58:13.315Z,28.85
2019-05-06T14:00:46.739Z,29.03
2019-05-06T14:03:20.135Z,27.55
2019-05-06T14:05:53.545Z,29.35
2019-05-06T14:08:27.844Z,27.78
2019-05-06T14:11:02.858Z,27.14
2019-05-06T14:13:36.395Z,28.61
2019-05-06T14:16:13.087Z,27.84
2019-05-06T14:18:46.709Z,27.00
2019-05-06T14:21:20.075Z,28.05
2019-05-06T14:23:55.446Z,27.88
2019-05-06T14:26:34.621Z,27.73
2019-05-06T14:29:16.536Z,27.57
2019-05-06T14:31:52.472Z,28.23
2019-05-06T14:34:26.159Z,28.16
2019-05-06T14:37:00.438Z,27.85
2019-05-06T14:39:52.248Z,27.94
2019-05-06T14:42:12.750Z,28.35
2019-05-06T14:44:46.192Z,27.41
2019-05-06T14:47:32.808Z,27.82
2019-05-06T14:50:07.366Z,27.23
2019-05-06T14:52:42.675Z,26.95
2019-05-06T14:55:22.580Z,27.72
2019-05-06T14:57:56.520Z,27.48
2019-05-06T15:00:31.953Z,27.74
2019-05-06T15:03:08.037Z,28.62
2019-05-06T15:05:42.756Z,29.16
2019-05-06T15:08:16.187Z,28.79
2019-05-06T15:10:49.707Z,28.21
2019-05-06T15:13:23.039Z,28.15
2019-05-06T15:15:56.283Z,27.98
2019-05-06T15:18:29.383Z,28.16
2019-05-06T15:21:29.236Z,28.02
2019-05-06T15:23:38.428Z,36.09
2019-05-06T15:26:16.429Z,28.83
2019-05-06T15:28:49.987Z,28.31
2019-05-06T15:32:02.613Z,28.33
2019-05-06T15:34:53.109Z,28.41
2019-05-06T15:37:42.299Z,28.85
2019-05-06T15:40:15.090Z,29.21
2019-05-06T15:42:48.155Z,30.06
2019-05-06T15:45:22.008Z,30.36
2019-05-06T15:47:55.504Z,30.42
2019-05-06T15:50:28.644Z,30.84
2019-05-06T15:53:03.552Z,30.45
2019-05-06T15:55:36.742Z,30.62
2019-05-06T15:58:12.302Z,31.57
2019-05-06T16:00:44.646Z,31.49
2019-05-06T16:03:17.804Z,31.23
2019-05-06T16:05:54.687Z,31.47
2019-05-06T16:08:26.722Z,31.06
2019-05-06T16:11:02.718Z,31.42
2019-05-06T16:13:34.959Z,31.54
2019-05-06T16:16:08.490Z,31.56
2019-05-06T16:18:42.287Z,30.95
2019-05-06T16:21:19.162Z,31.55
2019-05-06T16:23:57.438Z,31.44
2019-05-06T16:26:30.856Z,31.20
2019-05-06T16:29:04.582Z,31.21
2019-05-06T16:31:38.042Z,31.70
2019-05-06T16:34:12.419Z,31.42
2019-05-06T16:36:46.650Z,31.63
2019-05-06T16:39:22.874Z,31.36
2019-05-06T16:41:59.263Z,31.38
2019-05-06T16:44:34.716Z,32.23
2019-05-06T16:47:08.280Z,31.47
2019-05-06T16:49:42.801Z,31.76
2019-05-06T16:52:16.408Z,32.03
2019-05-06T16:54:51.992Z,31.63
2019-05-06T16:57:25.010Z,32.00
2019-05-06T16:59:59.907Z,32.52
2019-05-06T17:02:41.981Z,32.61
2019-05-06T17:05:42.489Z,31.57
2019-05-06T17:08:19.105Z,31.66
2019-05-06T17:10:53.815Z,32.32
2019-05-06T17:13:27.249Z,31.87
2019-05-06T17:16:02.492Z,32.36
2019-05-06T17:18:35.943Z,32.93
2019-05-06T17:21:09.291Z,32.93
2019-05-06T17:23:42.730Z,33.13
2019-05-06T17:26:19.454Z,32.46
2019-05-06T17:29:19.284Z,32.81
2019-05-06T18:19:16.689Z,40.59
2019-05-06T18:21:52.674Z,39.43
2019-05-06T18:24:26.685Z,39.57
2019-05-06T18:27:02.486Z,39.78
2019-05-06T18:29:36.216Z,40.31
2019-05-06T18:32:09.996Z,41.08
2019-05-06T18:34:44.729Z,41.03
2019-05-06T18:37:18.444Z,40.93
2019-05-06T18:39:53.058Z,41.12
2019-05-06T18:42:26.964Z,42.14
2019-05-06T18:45:02.593Z,41.87
2019-05-06T18:47:36.291Z,42.15
2019-05-06T18:50:12.401Z,44.17
2019-05-06T18:52:46.751Z,42.51
2019-05-06T18:55:22.377Z,42.64
2019-05-06T18:57:56.384Z,42.93
2019-05-06T19:00:32.010Z,42.89
2019-05-06T19:03:06.074Z,43.01
2019-05-06T19:05:42.887Z,42.99
2019-05-06T19:08:37.312Z,42.93
2019-05-06T19:11:13.299Z,42.97
2019-05-06T19:13:47.492Z,43.23
2019-05-06T19:16:25.369Z,44.97
2019-05-06T19:19:05.833Z,44.95
2019-05-06T19:21:38.438Z,45.47
2019-05-06T19:24:13.391Z,45.75
2019-05-06T19:26:47.211Z,47.44
2019-05-06T19:29:22.992Z,47.45
2019-05-06T19:31:56.526Z,45.74
2019-05-06T19:34:34.473Z,44.87
2019-05-06T19:37:24.969Z,44.68
2019-05-06T19:39:59.818Z,44.27
2019-05-06T19:43:15.660Z,44.11
2019-05-06T19:45:49.748Z,44.07
2019-05-06T19:48:25.111Z,43.96
2019-05-06T19:50:59.125Z,44.09
2019-05-06T19:53:33.009Z,44.17
2019-05-06T19:56:07.289Z,44.23
2019-05-06T19:58:42.919Z,48.58
2019-05-06T20:01:32.305Z,46.40
2019-05-06T20:04:07.853Z,44.16
2019-05-06T20:06:52.345Z,44.35
2019-05-06T20:09:52.171Z,44.27
2019-05-06T20:12:32.746Z,44.67
2019-05-06T20:15:25.909Z,44.33
2019-05-06T20:18:04.106Z,44.62
2019-05-06T20:20:38.816Z,44.72
2019-05-06T20:23:12.895Z,44.82
2019-05-06T20:25:47.001Z,45.10
2019-05-06T20:28:22.878Z,44.87
2019-05-06T20:30:58.665Z,45.25
2019-05-06T20:33:33.189Z,44.71
2019-05-06T20:36:07.497Z,44.70
2019-05-06T20:38:45.263Z,44.98
2019-05-06T20:41:22.165Z,45.05
2019-05-06T20:43:57.676Z,45.04
2019-05-06T21:09:54.930Z,44.81
2019-05-06T21:12:33.826Z,44.81
2019-05-06T21:15:32.374Z,45.09
2019-05-06T21:18:18.509Z,44.71
2019-05-06T21:20:56.413Z,45.70
2019-05-06T21:23:34.559Z,45.72
2019-05-06T21:26:11.110Z,45.82
2019-05-06T21:28:47.887Z,45.84
2019-05-06T21:31:21.621Z,46.23
2019-05-06T21:33:55.329Z,46.13
2019-05-06T21:36:29.125Z,46.67
2019-05-06T21:39:02.828Z,46.62
2019-05-06T21:41:37.050Z,46.72
2019-05-06T21:44:13.001Z,46.82
2019-05-06T21:46:46.073Z,47.01
2019-05-06T21:49:20.093Z,47.11
2019-05-06T21:51:53.908Z,47.43
2019-05-06T21:54:27.735Z,47.50
2019-05-06T21:57:02.985Z,47.83
2019-05-06T21:59:36.871Z,47.55
2019-05-06T22:02:12.630Z,47.88
2019-05-06T22:04:46.463Z,48.73
2019-05-06T22:07:20.340Z,48.50
2019-05-06T22:09:54.156Z,48.75
2019-05-06T22:12:27.987Z,48.93
2019-05-06T22:15:04.859Z,49.19
2019-05-06T22:17:37.214Z,49.21
2019-05-06T22:20:11.077Z,49.76
2019-05-06T22:22:45.312Z,49.78
2019-05-06T22:25:18.850Z,50.15
2019-05-06T22:27:53.637Z,50.17
2019-05-06T22:30:27.499Z,50.61
2019-05-06T22:33:03.432Z,50.83
2019-05-06T22:35:36.678Z,50.50
2019-05-06T22:38:12.243Z,50.62
2019-05-06T22:40:45.853Z,50.87
2019-05-06T22:43:21.870Z,50.66
2019-05-06T22:45:56.357Z,50.57
2019-05-06T22:48:32.379Z,50.52
2019-05-06T22:51:06.296Z,50.19
2019-05-06T22:53:42.319Z,50.64
2019-05-06T22:56:16.138Z,50.37
2019-05-06T22:58:52.234Z,50.31
2019-05-06T23:01:46.432Z,50.56
2019-05-06T23:04:25.488Z,50.43
2019-05-06T23:07:04.441Z,50.75
2019-05-06T23:09:45.507Z,50.59
2019-05-06T23:12:23.115Z,50.84
2019-05-06T23:15:02.494Z,50.83
2019-05-06T23:17:41.952Z,51.08
2019-05-06T23:20:16.141Z,51.27
2019-05-06T23:22:51.059Z,51.74
2019-05-06T23:25:25.888Z,51.98
2019-05-06T23:27:59.664Z,52.46
2019-05-06T23:30:33.634Z,52.43
2019-05-06T23:33:07.497Z,52.94
2019-05-06T23:35:43.937Z,53.25
2019-05-06T23:39:16.595Z,52.89
2019-05-06T23:43:00.308Z,53.35
2019-05-06T23:46:24.163Z,53.44
2019-05-06T23:54:08.261Z,54.17
2019-05-06T23:56:44.465Z,53.91
2019-05-06T23:59:20.098Z,54.67
